METAR Data
IDs: Format: Raw Decoded Include TAF

Data at: 2104 UTC 17 Nov 2018

PGUM 172054Z 07010KT 10SM FEW035 FEW080 28/27 A2985 RMK AO2 SLP101 T02780267 53014
PGUM 171954Z 07009KT 10SM CLR 27/27 A2984 RMK AO2 SLP096 T02720267
PGUM 171854Z 06010KT 10SM CLR 27/27 A2982 RMK AO2 SLP089 T02720267
PGUM 171754Z 06010KT 10SM CLR 27/27 A2981 RMK AO2 SLP088 60006 T02670267 10278 20261 58011
PGUM 171654Z 06011KT 10SM FEW045 27/27 A2983 RMK AO2 RAB17E30 SLP092 P0000 T02670267
PGUM 171554Z 05008KT 10SM FEW016 SCT024 BKN034 27/27 A2984 RMK AO2 RAB38E53 SLP095 P0004 T02720272

PGUM 171729Z 1718/1824 06008KT P6SM VCSH FEW020 SCT040
  FM172300 07015KT P6SM VCSH SCT020 SCT040
  FM180800 07008KT P6SM VCSH FEW020 SCT040